Time;durP1;ratioP1;P1;durP2;ratioP2;P2;SDS_P1;SDS_P2;PMS_P1;PMS_P2;Temp;Humidity;BMP_temperature;BMP_pressure;BME280_temperature;BME280_humidity;BME280_pressure;Samples;Min_cycle;Max_cycle;Signal;HPM_P1;HPM_P2
2023/01/23 00:00:39;;;;;;;3.72;3.00;;;15.80;68.60;;;;;;5130542;27;20198;-64
2023/01/23 00:03:27;;;;;;;3.25;2.92;;;15.70;68.80;;;;;;5131772;27;20223;-61
2023/01/23 00:06:16;;;;;;;5.57;3.63;;;15.60;68.90;;;;;;5131064;27;20603;-61
2023/01/23 00:09:04;;;;;;;3.47;3.13;;;15.60;69.10;;;;;;5130274;27;20262;-60
2023/01/23 00:11:52;;;;;;;3.90;3.25;;;15.60;69.10;;;;;;5130890;27;20277;-65
2023/01/23 00:14:41;;;;;;;3.35;3.05;;;15.60;69.20;;;;;;5132043;27;20207;-63
2023/01/23 00:17:30;;;;;;;3.30;3.00;;;15.60;69.20;;;;;;5130868;27;20648;-62
2023/01/23 00:20:18;;;;;;;3.65;3.17;;;15.60;69.20;;;;;;5130998;27;20328;-64
2023/01/23 00:23:07;;;;;;;3.75;3.13;;;15.60;69.10;;;;;;5131919;27;20210;-62
2023/01/23 00:25:55;;;;;;;5.15;3.70;;;16.00;76.70;;;;;;5130537;27;20243;-62
2023/01/23 00:28:44;;;;;;;3.58;3.28;;;15.70;69.10;;;;;;5131627;27;20642;-60
2023/01/23 00:31:34;;;;;;;3.50;3.20;;;15.70;68.90;;;;;;5130598;27;20209;-65
2023/01/23 00:34:23;;;;;;;5.90;3.08;;;15.70;68.80;;;;;;5130268;28;20279;-64
2023/01/23 00:37:12;;;;;;;3.53;3.10;;;15.80;68.90;;;;;;5130868;28;20226;-64
2023/01/23 00:40:00;;;;;;;3.85;3.30;;;15.80;68.90;;;;;;5130349;28;20592;-63
2023/01/23 00:42:48;;;;;;;3.42;3.00;;;15.80;68.80;;;;;;5130605;28;20275;-61
2023/01/23 00:45:36;;;;;;;5.03;3.80;;;15.80;68.80;;;;;;5130709;28;20340;-63
2023/01/23 00:48:25;;;;;;;4.18;3.78;;;15.90;68.80;;;;;;5130566;28;20255;-64
2023/01/23 00:51:14;;;;;;;3.88;3.33;;;15.90;68.80;;;;;;5130170;28;20231;-65
2023/01/23 00:54:03;;;;;;;4.15;3.38;;;15.90;68.70;;;;;;5130422;28;20206;-65
2023/01/23 00:56:51;;;;;;;3.28;2.97;;;15.80;68.60;;;;;;5124520;28;20294;-62
2023/01/23 00:59:39;;;;;;;4.40;3.80;;;15.80;68.70;;;;;;5109885;28;20200;-60
2023/01/23 01:02:27;;;;;;;4.15;3.60;;;15.80;68.60;;;;;;5110344;28;20601;-64
2023/01/23 01:05:17;;;;;;;3.58;3.28;;;15.90;68.70;;;;;;5110466;28;20199;-60
2023/01/23 01:08:06;;;;;;;3.38;3.08;;;15.80;68.60;;;;;;5110087;28;20722;-65
2023/01/23 01:10:54;;;;;;;4.10;3.55;;;15.70;68.80;;;;;;5109943;28;20748;-60
2023/01/23 01:13:43;;;;;;;3.92;3.08;;;15.60;68.90;;;;;;5110256;28;20283;-64
2023/01/23 01:16:31;;;;;;;4.07;3.40;;;15.60;69.00;;;;;;5110180;28;20304;-63
2023/01/23 01:19:20;;;;;;;3.63;3.25;;;15.60;69.20;;;;;;5109928;28;20725;-62
2023/01/23 01:22:08;;;;;;;5.03;3.60;;;15.60;69.30;;;;;;5114067;28;20278;-64
2023/01/23 01:24:57;;;;;;;3.58;3.28;;;15.60;69.20;;;;;;5114162;28;20231;-63
2023/01/23 01:27:45;;;;;;;4.10;3.55;;;15.60;69.20;;;;;;5113760;28;20215;-63
2023/01/23 01:30:35;;;;;;;3.60;3.30;;;15.70;69.10;;;;;;5113680;28;20671;-64
2023/01/23 01:33:24;;;;;;;3.40;3.10;;;15.70;69.10;;;;;;5114011;28;20191;-63
2023/01/23 01:36:14;;;;;;;3.92;3.38;;;15.80;69.10;;;;;;5113718;28;20230;-61
2023/01/23 01:39:02;;;;;;;3.30;3.00;;;15.80;68.90;;;;;;5113511;28;20648;-64
2023/01/23 01:41:52;;;;;;;3.80;3.40;;;15.80;68.90;;;;;;5113546;28;20195;-62
2023/01/23 01:44:54;;;;;;;4.75;3.38;;;15.90;68.80;;;;;;5113835;28;20274;-61
2023/01/23 01:47:42;;;;;;;3.80;3.50;;;15.80;68.70;;;;;;5113625;28;20298;-63
2023/01/23 01:50:30;;;;;;;4.35;3.30;;;15.80;68.70;;;;;;5113207;28;20325;-61
2023/01/23 01:53:20;;;;;;;3.92;2.95;;;15.80;68.60;;;;;;5113688;28;20345;-64
2023/01/23 01:56:11;;;;;;;4.18;3.72;;;15.80;68.60;;;;;;5113672;27;20227;-64
2023/01/23 01:59:02;;;;;;;4.72;3.63;;;15.80;68.60;;;;;;5133346;27;20735;-62
2023/01/23 02:01:54;;;;;;;4.70;3.33;;;15.90;68.70;;;;;;5133603;27;20324;-63
2023/01/23 02:04:47;;;;;;;4.03;3.63;;;15.80;68.70;;;;;;5133240;27;20210;-63
2023/01/23 02:07:39;;;;;;;3.58;3.28;;;15.80;69.40;;;;;;5132783;27;20697;-65
2023/01/23 02:10:27;;;;;;;3.47;3.13;;;15.90;68.80;;;;;;5133649;27;20295;-64
2023/01/23 02:13:24;;;;;;;4.43;3.78;;;15.90;68.70;;;;;;5134142;27;20554;-64
2023/01/23 02:16:19;;;;;;;3.75;3.38;;;15.90;68.60;;;;;;5133480;27;20582;-62
2023/01/23 02:19:17;;;;;;;3.60;3.30;;;15.90;68.70;;;;;;5131172;27;20277;-61
2023/01/23 02:22:13;;;;;;;4.25;3.30;;;15.80;68.80;;;;;;5113235;28;20199;-62
2023/01/23 02:25:08;;;;;;;4.10;3.35;;;15.70;68.90;;;;;;5116886;27;20204;-64
2023/01/23 02:27:58;;;;;;;3.58;3.28;;;15.60;69.00;;;;;;5113559;28;20218;-64
2023/01/23 02:30:46;;;;;;;4.50;2.97;;;15.60;69.20;;;;;;5111530;28;20306;-60
2023/01/23 02:33:50;;;;;;;4.80;3.72;;;15.60;69.20;;;;;;5113195;28;20256;-60
2023/01/23 02:36:39;;;;;;;3.95;3.40;;;15.70;69.20;;;;;;5112413;28;20219;-60
2023/01/23 02:39:28;;;;;;;4.50;3.88;;;15.70;69.20;;;;;;5112776;28;20257;-64
2023/01/23 02:42:16;;;;;;;4.47;3.90;;;15.80;69.10;;;;;;5112758;28;20302;-62
2023/01/23 02:45:06;;;;;;;3.97;3.58;;;15.80;69.10;;;;;;5113170;28;20203;-61
2023/01/23 02:47:54;;;;;;;4.13;3.65;;;15.80;68.90;;;;;;5112730;28;20211;-63
2023/01/23 02:50:45;;;;;;;4.25;3.22;;;15.80;68.80;;;;;;5112876;28;20219;-61
2023/01/23 02:53:33;;;;;;;3.60;3.30;;;15.90;68.80;;;;;;5112941;28;20211;-63
2023/01/23 02:56:21;;;;;;;4.05;3.53;;;15.90;68.80;;;;;;5112253;28;20251;-61
2023/01/23 03:02:16;;;;;;;5.05;3.55;;;15.90;68.70;;;;;;5112630;28;20316;-60
2023/01/23 03:05:05;;;;;;;4.05;3.22;;;15.90;68.60;;;;;;5112030;28;20200;-63
2023/01/23 03:07:53;;;;;;;3.88;3.58;;;15.90;68.50;;;;;;5111973;28;20219;-66
2023/01/23 03:10:42;;;;;;;5.00;3.97;;;15.90;68.60;;;;;;5111625;28;20606;-63
2023/01/23 03:13:31;;;;;;;3.88;3.50;;;15.90;68.70;;;;;;5112214;28;20191;-63
2023/01/23 03:16:19;;;;;;;4.75;3.65;;;15.90;68.60;;;;;;5112245;28;20699;-61
2023/01/23 03:19:09;;;;;;;3.65;3.30;;;15.80;68.60;;;;;;5111638;28;20199;-60
2023/01/23 03:21:58;;;;;;;3.78;3.45;;;15.80;68.60;;;;;;5112367;28;20339;-61
2023/01/23 03:24:46;;;;;;;3.45;3.03;;;15.80;68.70;;;;;;5111860;28;20269;-62
2023/01/23 03:27:36;;;;;;;5.00;3.47;;;15.80;68.70;;;;;;5112771;28;20269;-62
2023/01/23 03:30:24;;;;;;;5.88;3.90;;;15.80;68.80;;;;;;5112176;28;20640;-63
2023/01/23 03:33:12;;;;;;;4.05;3.50;;;15.70;68.80;;;;;;5112096;28;20227;-64
2023/01/23 03:36:01;;;;;;;5.32;3.80;;;15.50;75.90;;;;;;5111167;28;20192;-63
2023/01/23 03:41:55;;;;;;;5.13;3.92;;;15.60;69.20;;;;;;5111967;28;20244;-65
2023/01/23 03:44:43;;;;;;;6.32;4.68;;;15.60;69.40;;;;;;5111218;28;20272;-63
2023/01/23 03:47:31;;;;;;;4.72;3.72;;;15.70;69.50;;;;;;5112228;28;20220;-65
2023/01/23 03:50:19;;;;;;;5.30;3.70;;;15.70;69.30;;;;;;5110848;28;20301;-64
2023/01/23 03:53:09;;;;;;;4.32;3.88;;;15.70;69.20;;;;;;5111694;28;20297;-65
2023/01/23 03:55:57;;;;;;;5.53;3.92;;;15.60;76.30;;;;;;5111266;28;20255;-64
2023/01/23 03:58:45;;;;;;;4.93;3.85;;;15.80;69.10;;;;;;5111421;28;20200;-61
2023/01/23 04:01:33;;;;;;;3.33;2.92;;;15.90;69.10;;;;;;5110601;28;20572;-61
2023/01/23 04:04:21;;;;;;;6.00;4.20;;;15.90;69.00;;;;;;5111086;28;20191;-63
2023/01/23 04:07:09;;;;;;;6.05;3.92;;;15.90;68.80;;;;;;5110252;28;20692;-63
2023/01/23 04:09:58;;;;;;;4.88;4.47;;;15.90;68.70;;;;;;5110366;28;20218;-63
2023/01/23 04:12:46;;;;;;;5.07;4.07;;;15.90;68.70;;;;;;5110218;28;20202;-61
2023/01/23 04:15:34;;;;;;;4.38;3.78;;;15.90;68.70;;;;;;5110978;28;20280;-62
2023/01/23 04:18:22;;;;;;;6.75;4.30;;;15.90;68.60;;;;;;5110125;28;20620;-62
2023/01/23 04:21:11;;;;;;;4.95;3.78;;;16.00;68.70;;;;;;5110404;28;20191;-63
2023/01/23 04:23:59;;;;;;;4.45;3.35;;;16.00;68.70;;;;;;5110862;28;20206;-61
2023/01/23 04:26:48;;;;;;;4.53;3.78;;;15.90;68.60;;;;;;5109849;28;20274;-60
2023/01/23 04:29:36;;;;;;;4.53;4.13;;;15.80;68.60;;;;;;5110488;28;20199;-59
2023/01/23 04:32:24;;;;;;;5.22;3.53;;;15.90;68.70;;;;;;5109936;28;20450;-62
2023/01/23 04:35:13;;;;;;;4.13;3.72;;;15.90;68.70;;;;;;5110669;28;20199;-63
2023/01/23 04:38:01;;;;;;;5.07;4.38;;;15.80;68.70;;;;;;5110228;28;20253;-62
2023/01/23 04:40:50;;;;;;;5.57;4.35;;;15.90;68.80;;;;;;5110643;28;20195;-66
2023/01/23 04:43:39;;;;;;;4.55;4.15;;;15.80;68.80;;;;;;5110339;28;20288;-62
2023/01/23 04:46:27;;;;;;;5.43;4.20;;;15.80;69.00;;;;;;5110089;28;20303;-64
2023/01/23 04:49:17;;;;;;;4.07;3.65;;;15.70;68.90;;;;;;5110748;28;20337;-59
2023/01/23 04:52:05;;;;;;;5.80;4.43;;;15.60;69.10;;;;;;5110872;28;20207;-60
2023/01/23 04:54:53;;;;;;;4.97;4.38;;;15.60;69.20;;;;;;5113347;28;20328;-63
2023/01/23 04:57:41;;;;;;;5.88;4.50;;;15.60;69.40;;;;;;5128089;27;20234;-61
2023/01/23 05:00:30;;;;;;;5.13;3.90;;;15.60;69.40;;;;;;5134987;27;20678;-60
2023/01/23 05:03:18;;;;;;;5.97;4.40;;;15.60;69.40;;;;;;5134880;27;20676;-59
2023/01/23 05:06:07;;;;;;;5.45;4.32;;;15.70;69.30;;;;;;5134865;27;20253;-63
2023/01/23 05:08:55;;;;;;;6.60;4.80;;;15.70;69.30;;;;;;5135164;27;20247;-60
2023/01/23 05:11:43;;;;;;;4.60;3.60;;;15.70;69.10;;;;;;5134757;27;20770;-65
2023/01/23 05:14:31;;;;;;;6.93;4.57;;;15.80;69.10;;;;;;5135014;27;20230;-59
2023/01/23 05:17:20;;;;;;;5.63;4.53;;;15.80;69.00;;;;;;5134596;27;20254;-59
2023/01/23 05:20:10;;;;;;;5.90;4.22;;;15.80;68.90;;;;;;5134731;27;20274;-64
2023/01/23 05:22:58;;;;;;;5.55;4.53;;;15.90;68.90;;;;;;5135359;27;20198;-62
2023/01/23 05:25:46;;;;;;;4.85;4.38;;;16.10;73.60;;;;;;5134255;27;20672;-61
2023/01/23 05:28:34;;;;;;;5.38;4.10;;;15.90;68.80;;;;;;5133909;27;20329;-61
2023/01/23 05:31:22;;;;;;;4.78;4.30;;;15.90;68.70;;;;;;5134636;27;20250;-65
2023/01/23 05:34:12;;;;;;;6.57;4.70;;;15.90;68.70;;;;;;5133745;27;20206;-64
2023/01/23 05:37:00;;;;;;;4.70;3.63;;;15.90;68.70;;;;;;5133993;27;20364;-61
2023/01/23 05:39:48;;;;;;;5.75;5.15;;;16.00;68.80;;;;;;5133914;27;20505;-58
2023/01/23 05:42:36;;;;;;;4.22;3.83;;;16.00;68.80;;;;;;5133873;27;20670;-59
2023/01/23 05:45:24;;;;;;;5.07;4.22;;;15.90;68.70;;;;;;5133577;27;20248;-62
2023/01/23 05:48:12;;;;;;;5.05;3.85;;;16.00;68.80;;;;;;5133984;27;20331;-60
2023/01/23 05:51:03;;;;;;;4.35;3.95;;;15.90;68.70;;;;;;5134157;27;20576;-60
2023/01/23 05:53:51;;;;;;;5.82;4.38;;;15.90;68.80;;;;;;5134890;27;20264;-62
2023/01/23 05:56:39;;;;;;;6.55;4.45;;;15.80;68.90;;;;;;5129078;27;20701;-60
2023/01/23 05:59:27;;;;;;;6.35;4.60;;;15.70;69.00;;;;;;5113667;28;20280;-64
2023/01/23 06:02:16;;;;;;;5.53;4.47;;;15.70;69.20;;;;;;5113256;28;20258;-60
2023/01/23 06:05:04;;;;;;;6.03;4.35;;;15.70;69.30;;;;;;5113388;28;20203;-61
2023/01/23 06:07:54;;;;;;;4.60;3.85;;;15.70;69.30;;;;;;5112654;28;20780;-61
2023/01/23 06:10:42;;;;;;;5.93;4.65;;;15.70;69.30;;;;;;5112866;28;20222;-64
2023/01/23 06:13:30;;;;;;;6.32;4.75;;;15.70;69.20;;;;;;5113472;28;20633;-60
2023/01/23 06:16:18;;;;;;;7.22;4.47;;;15.80;69.30;;;;;;5113117;28;20221;-60
2023/01/23 06:19:06;;;;;;;5.70;4.18;;;15.80;69.20;;;;;;5113188;28;20211;-64
2023/01/23 06:21:54;;;;;;;8.95;5.07;;;15.80;69.10;;;;;;5113019;28;20687;-63
2023/01/23 06:24:43;;;;;;;7.97;4.18;;;15.80;69.00;;;;;;5112862;28;20625;-62
2023/01/23 06:27:32;;;;;;;8.65;5.75;;;15.90;69.00;;;;;;5112687;28;20294;-59
2023/01/23 06:30:20;;;;;;;88.53;17.00;;;15.90;68.80;;;;;;5112513;28;20206;-62
2023/01/23 06:33:08;;;;;;;604.40;88.82;;;16.00;68.90;;;;;;5112784;28;20279;-63
2023/01/23 06:35:58;;;;;;;424.83;56.80;;;16.00;75.00;;;;;;5112203;28;20241;-64
2023/01/23 06:38:46;;;;;;;173.43;23.77;;;15.90;68.80;;;;;;5113459;28;20277;-62
2023/01/23 06:41:35;;;;;;;164.57;24.88;;;15.90;68.70;;;;;;5121587;27;20300;-63
2023/01/23 06:44:23;;;;;;;177.60;26.40;;;15.90;68.70;;;;;;5131695;27;20334;-60
2023/01/23 06:47:11;;;;;;;134.10;21.92;;;15.90;68.70;;;;;;5132474;27;20215;-61
2023/01/23 06:50:00;;;;;;;121.68;20.77;;;16.00;68.80;;;;;;5127635;27;20241;-61
2023/01/23 06:52:48;;;;;;;108.30;19.40;;;15.90;68.70;;;;;;5112080;28;20222;-60
2023/01/23 06:55:36;;;;;;;46.47;10.43;;;15.90;68.70;;;;;;5116856;27;20277;-59
2023/01/23 06:58:27;;;;;;;56.92;11.57;;;16.00;68.80;;;;;;5117670;27;20685;-58
2023/01/23 07:01:18;;;;;;;39.90;10.13;;;16.00;68.70;;;;;;5125018;27;20268;-60
2023/01/23 07:04:07;;;;;;;35.13;9.90;;;16.00;68.80;;;;;;5112504;28;20207;-60
2023/01/23 07:06:55;;;;;;;38.45;9.43;;;16.00;68.90;;;;;;5122820;27;20693;-64
2023/01/23 07:09:44;;;;;;;126.07;24.63;;;15.80;69.10;;;;;;5132226;27;20216;-60
2023/01/23 07:12:32;;;;;;;127.78;18.98;;;15.80;69.70;;;;;;5131792;27;20225;-59
2023/01/23 07:15:21;;;;;;;84.80;17.05;;;15.90;69.90;;;;;;5131557;27;20202;-60
2023/01/23 07:18:10;;;;;;;79.75;15.68;;;16.10;69.90;;;;;;5111426;28;20723;-66
2023/01/23 07:20:58;;;;;;;54.28;12.38;;;16.20;69.80;;;;;;5111222;28;20199;-64
2023/01/23 07:23:46;;;;;;;36.05;10.18;;;16.40;69.80;;;;;;5111720;28;20207;-60
2023/01/23 07:26:34;;;;;;;43.38;9.23;;;16.50;69.60;;;;;;5111545;28;20263;-64
2023/01/23 07:29:22;;;;;;;38.25;8.95;;;16.70;69.40;;;;;;5112193;28;20677;-60
2023/01/23 07:32:11;;;;;;;40.58;9.80;;;16.90;69.20;;;;;;5112131;28;20336;-61
2023/01/23 07:34:59;;;;;;;31.85;9.68;;;17.00;69.00;;;;;;5111204;27;20667;-62
2023/01/23 07:37:47;;;;;;;41.08;9.10;;;17.10;68.80;;;;;;5112308;28;20260;-60
2023/01/23 07:40:37;;;;;;;32.65;8.80;;;17.30;68.80;;;;;;5120131;27;20199;-64
2023/01/23 07:43:25;;;;;;;26.83;7.82;;;17.40;68.80;;;;;;5131321;27;20688;-61
2023/01/23 07:46:14;;;;;;;32.28;8.40;;;17.60;68.70;;;;;;5131746;27;20302;-63
2023/01/23 07:49:03;;;;;;;24.73;8.35;;;17.70;68.30;;;;;;5132153;27;20255;-59
2023/01/23 07:51:51;;;;;;;27.25;7.57;;;17.90;68.20;;;;;;5128518;27;20222;-61
2023/01/23 07:54:39;;;;;;;23.65;7.18;;;18.00;67.90;;;;;;5107889;27;20292;-62
2023/01/23 07:57:27;;;;;;;25.20;8.38;;;18.10;67.60;;;;;;5117048;27;20686;-59
2023/01/23 08:00:16;;;;;;;20.95;7.50;;;18.10;67.50;;;;;;5112635;28;20248;-61
2023/01/23 08:03:04;;;;;;;20.63;7.93;;;18.20;67.50;;;;;;5110819;28;20191;-64
2023/01/23 08:05:54;;;;;;;24.33;7.63;;;18.50;72.10;;;;;;5110086;28;20252;-61
2023/01/23 08:08:42;;;;;;;18.90;8.57;;;18.50;67.40;;;;;;5110131;28;20274;-61
2023/01/23 08:11:30;;;;;;;22.08;7.68;;;18.60;67.20;;;;;;5109393;28;20265;-65
2023/01/23 08:14:21;;;;;;;20.55;6.75;;;18.60;67.00;;;;;;5110556;28;20199;-60
2023/01/23 08:17:09;;;;;;;21.15;7.43;;;18.70;66.90;;;;;;5111048;28;20717;-62
2023/01/23 08:19:57;;;;;;;10.68;6.20;;;18.20;66.30;;;;;;5111261;28;20203;-59
2023/01/23 08:22:47;;;;;;;15.32;7.15;;;18.80;66.70;;;;;;5111265;28;20231;-62
2023/01/23 08:25:37;;;;;;;17.85;6.53;;;18.80;66.60;;;;;;5118338;27;20276;-60
2023/01/23 08:28:26;;;;;;;15.65;6.53;;;18.80;66.70;;;;;;5113531;27;20203;-59
2023/01/23 08:31:14;;;;;;;15.85;8.13;;;18.90;66.70;;;;;;5109359;28;20269;-62
2023/01/23 08:34:02;;;;;;;15.30;6.95;;;19.00;66.60;;;;;;5110954;28;20191;-64
2023/01/23 08:36:51;;;;;;;19.33;6.35;;;19.00;66.50;;;;;;5110024;28;20311;-62
2023/01/23 08:39:40;;;;;;;16.08;6.75;;;19.10;66.50;;;;;;5110530;28;20231;-59
2023/01/23 08:42:28;;;;;;;12.70;5.90;;;19.10;66.30;;;;;;5109397;28;20282;-64
2023/01/23 08:45:16;;;;;;;12.57;6.03;;;19.10;66.30;;;;;;5115730;27;20199;-60
2023/01/23 08:48:05;;;;;;;12.98;6.57;;;19.10;66.30;;;;;;5109966;28;20337;-61
2023/01/23 08:50:59;;;;;;;12.38;6.13;;;19.10;66.60;;;;;;5110008;28;20702;-59
2023/01/23 08:53:48;;;;;;;14.40;6.72;;;19.10;66.60;;;;;;5109680;28;20215;-60
2023/01/23 08:56:37;;;;;;;12.50;6.28;;;19.20;66.50;;;;;;5109966;28;20662;-59
2023/01/23 08:59:25;;;;;;;14.25;6.35;;;19.30;67.00;;;;;;5118528;28;20283;-61
2023/01/23 09:02:13;;;;;;;16.08;6.35;;;19.30;67.40;;;;;;5118804;27;20248;-65
2023/01/23 09:05:01;;;;;;;12.85;5.95;;;19.40;67.70;;;;;;5107493;28;20214;-62
2023/01/23 09:07:49;;;;;;;17.88;7.65;;;19.40;67.60;;;;;;5109616;28;20276;-59
2023/01/23 09:10:37;;;;;;;16.60;6.18;;;19.50;67.60;;;;;;5111068;28;20614;-60
2023/01/23 09:13:27;;;;;;;12.30;6.10;;;19.50;66.70;;;;;;5109947;28;20222;-60
2023/01/23 09:16:15;;;;;;;13.95;6.72;;;19.60;66.40;;;;;;5109600;28;20280;-59
2023/01/23 09:19:03;;;;;;;9.82;5.53;;;19.50;66.20;;;;;;5109819;28;20203;-59
2023/01/23 09:21:53;;;;;;;18.02;6.80;;;19.50;66.10;;;;;;5110397;28;20282;-60
2023/01/23 09:24:41;;;;;;;10.63;6.78;;;19.50;66.10;;;;;;5109151;28;20204;-58
2023/01/23 09:27:29;;;;;;;10.63;6.30;;;19.50;66.40;;;;;;5110101;28;20242;-58
2023/01/23 09:30:19;;;;;;;9.98;5.40;;;19.60;66.60;;;;;;5109560;28;20726;-59
2023/01/23 09:33:07;;;;;;;9.63;5.53;;;19.60;66.70;;;;;;5126541;28;20355;-59
2023/01/23 09:35:56;;;;;;;13.23;6.05;;;19.60;70.90;;;;;;5120443;28;20659;-58
2023/01/23 09:38:44;;;;;;;10.13;5.70;;;19.70;66.60;;;;;;5121279;28;20620;-60
2023/01/23 09:41:32;;;;;;;26.13;8.13;;;19.80;66.60;;;;;;5119293;27;20203;-59
2023/01/23 09:44:27;;;;;;;12.23;7.22;;;19.80;66.60;;;;;;5124982;27;20267;-59
2023/01/23 09:47:23;;;;;;;36.60;9.23;;;19.80;66.40;;;;;;5124460;27;20662;-59
2023/01/23 09:50:18;;;;;;;40.38;9.98;;;19.90;66.60;;;;;;5132988;27;20206;-57
2023/01/23 09:53:12;;;;;;;35.10;9.77;;;20.00;66.70;;;;;;5119530;27;20227;-60
2023/01/23 09:56:07;;;;;;;39.85;10.15;;;20.30;70.60;;;;;;5131552;27;20322;-58
2023/01/23 09:59:13;;;;;;;22.65;8.00;;;20.10;66.20;;;;;;5119634;27;20199;-59
2023/01/23 10:02:01;;;;;;;24.55;7.88;;;20.10;66.20;;;;;;5133443;27;20271;-59
2023/01/23 10:04:52;;;;;;;20.08;7.30;;;20.10;66.20;;;;;;5134373;27;20580;-60
2023/01/23 10:08:02;;;;;;;33.60;8.85;;;20.10;66.20;;;;;;5130191;27;20264;-59
2023/01/23 10:11:03;;;;;;;38.47;10.73;;;20.10;65.90;;;;;;5128871;27;20199;-59
2023/01/23 10:14:09;;;;;;;46.38;12.25;;;20.20;65.90;;;;;;5112222;28;20219;-59
2023/01/23 10:17:06;;;;;;;282.73;35.15;;;20.20;65.70;;;;;;5111658;28;20296;-58
2023/01/23 10:20:24;;;;;;;192.43;30.27;;;20.10;65.50;;;;;;5114208;28;20282;-58
2023/01/23 10:23:24;;;;;;;142.25;22.23;;;20.10;65.60;;;;;;5113909;28;20581;-59
2023/01/23 10:26:18;;;;;;;125.90;23.25;;;20.10;65.60;;;;;;5113698;28;20643;-57
2023/01/23 10:29:13;;;;;;;100.78;17.38;;;20.10;65.60;;;;;;5127222;27;20702;-60
2023/01/23 10:32:05;;;;;;;66.30;15.90;;;20.10;65.50;;;;;;5124161;27;20218;-60
2023/01/23 10:34:58;;;;;;;38.08;13.23;;;20.10;65.50;;;;;;5129399;27;20572;-60
2023/01/23 10:37:54;;;;;;;40.10;11.63;;;20.10;65.50;;;;;;5121785;27;20254;-58
2023/01/23 10:43:52;;;;;;;35.63;9.25;;;20.10;65.30;;;;;;5127298;27;20674;-59
2023/01/23 10:46:45;;;;;;;135.23;23.30;;;20.20;65.50;;;;;;5127190;27;20317;-59
2023/01/23 10:49:36;;;;;;;31.17;9.68;;;20.20;65.20;;;;;;5112029;28;20198;-58
2023/01/23 10:52:37;;;;;;;32.30;8.52;;;20.30;65.20;;;;;;5112981;28;20203;-58
2023/01/23 10:55:29;;;;;;;29.67;8.75;;;20.30;65.00;;;;;;5113691;28;20225;-59
2023/01/23 10:58:29;;;;;;;36.70;9.70;;;20.30;65.00;;;;;;5113083;28;20203;-58
2023/01/23 11:01:26;;;;;;;19.52;8.10;;;20.30;64.90;;;;;;5111854;28;20248;-58
2023/01/23 11:04:20;;;;;;;22.98;8.95;;;20.30;64.80;;;;;;5122759;27;20198;-59
2023/01/23 11:07:13;;;;;;;18.33;8.50;;;20.30;64.90;;;;;;5120904;27;20207;-58
2023/01/23 11:10:22;;;;;;;20.30;7.38;;;20.20;64.90;;;;;;5134456;27;20277;-59
2023/01/23 11:13:25;;;;;;;16.08;6.68;;;20.20;65.10;;;;;;5133412;27;20273;-59
2023/01/23 11:16:15;;;;;;;22.35;7.88;;;20.30;65.00;;;;;;5127694;27;20222;-59
2023/01/23 11:19:12;;;;;;;17.45;8.00;;;20.30;65.10;;;;;;5127218;27;20210;-60
2023/01/23 11:22:02;;;;;;;17.73;7.65;;;20.30;65.10;;;;;;5116266;27;20287;-59
2023/01/23 11:24:50;;;;;;;17.65;7.93;;;20.40;65.20;;;;;;5112085;28;20199;-60
2023/01/23 11:27:39;;;;;;;17.70;6.90;;;20.40;65.10;;;;;;5112805;28;20211;-59
2023/01/23 11:30:35;;;;;;;11.25;7.75;;;20.50;65.10;;;;;;5112991;28;20280;-59
2023/01/23 11:33:36;;;;;;;12.52;6.90;;;20.50;65.00;;;;;;5126832;27;20223;-57
2023/01/23 11:36:44;;;;;;;10.05;6.57;;;20.50;64.90;;;;;;5128867;27;20232;-59
2023/01/23 11:39:48;;;;;;;18.30;7.85;;;20.50;64.80;;;;;;5119632;27;20752;-59
2023/01/23 11:42:39;;;;;;;13.23;7.68;;;20.50;65.60;;;;;;5112576;28;20227;-58
2023/01/23 11:45:43;;;;;;;13.30;6.72;;;20.60;64.70;;;;;;5112601;28;20191;-58
2023/01/23 11:48:59;;;;;;;11.10;5.97;;;20.60;64.70;;;;;;5112802;28;20211;-59
2023/01/23 11:52:00;;;;;;;14.15;7.63;;;20.60;65.30;;;;;;5111181;27;20848;-58
2023/01/23 11:55:04;;;;;;;10.45;6.80;;;20.60;64.50;;;;;;5126054;27;20293;-60
2023/01/23 11:58:04;;;;;;;12.73;7.50;;;20.60;64.50;;;;;;5123122;27;20222;-58
2023/01/23 12:01:04;;;;;;;13.18;6.78;;;20.60;64.40;;;;;;5124397;27;20234;-63
2023/01/23 12:04:10;;;;;;;14.95;6.28;;;20.60;64.40;;;;;;5117624;27;20203;-59
2023/01/23 12:07:11;;;;;;;11.50;6.55;;;20.60;64.30;;;;;;5110700;28;20246;-59
2023/01/23 12:10:07;;;;;;;13.48;6.38;;;20.60;64.30;;;;;;5125142;27;20264;-59
2023/01/23 12:13:11;;;;;;;13.18;7.32;;;20.60;64.30;;;;;;5120602;27;20676;-58
2023/01/23 12:16:12;;;;;;;13.65;7.05;;;21.10;69.70;;;;;;5121850;27;20198;-60
2023/01/23 12:19:15;;;;;;;17.75;7.25;;;20.50;64.50;;;;;;5111011;28;20199;-58
2023/01/23 12:22:10;;;;;;;17.13;7.32;;;20.60;64.70;;;;;;5111024;28;20282;-60
2023/01/23 12:25:10;;;;;;;10.55;5.72;;;20.50;64.50;;;;;;5116455;27;20295;-57
2023/01/23 12:28:12;;;;;;;9.65;6.57;;;20.60;64.70;;;;;;5113662;27;20279;-58
2023/01/23 12:31:36;;;;;;;8.98;5.95;;;20.60;64.70;;;;;;5115369;27;20209;-60
2023/01/23 12:34:37;;;;;;;11.43;6.90;;;20.60;64.80;;;;;;5120288;27;20702;-64
2023/01/23 12:37:50;;;;;;;9.95;6.20;;;20.60;64.90;;;;;;5110581;28;20307;-57
2023/01/23 12:40:43;;;;;;;13.32;6.38;;;20.60;64.90;;;;;;5118884;28;20194;-58
2023/01/23 12:43:37;;;;;;;17.65;6.65;;;20.70;64.90;;;;;;5124156;28;20999;-58
2023/01/23 12:46:35;;;;;;;13.40;6.85;;;20.80;64.90;;;;;;5117778;28;20219;-59
2023/01/23 12:49:28;;;;;;;10.27;6.78;;;20.80;65.50;;;;;;5122128;28;20293;-59
2023/01/23 12:52:23;;;;;;;13.07;6.32;;;21.10;69.30;;;;;;5140412;22;20273;-61
2023/01/23 12:55:19;;;;;;;8.48;6.45;;;20.80;64.80;;;;;;5069235;28;20712;-61
2023/01/23 12:58:12;;;;;;;12.65;6.68;;;20.80;64.70;;;;;;5069236;28;20212;-62
2023/01/23 13:01:12;;;;;;;9.43;5.78;;;20.90;64.70;;;;;;5070416;28;20207;-61
2023/01/23 13:04:18;;;;;;;8.70;5.82;;;20.80;64.70;;;;;;5067411;28;20306;-60
2023/01/23 13:07:23;;;;;;;11.43;7.47;;;20.80;64.60;;;;;;5071894;28;20246;-61
2023/01/23 13:11:39;;;;;;;11.88;6.00;;;20.90;64.60;;;;;;5069431;28;20614;-60
2023/01/23 13:13:34;;;;;;;10.88;6.97;;;20.80;64.40;;;;;;5071623;28;20252;-60
2023/01/23 13:16:27;;;;;;;12.88;6.05;;;20.90;64.50;;;;;;5074449;28;20208;-60
2023/01/23 13:22:32;;;;;;;7.75;6.22;;;20.90;64.50;;;;;;5075362;28;20243;-61
2023/01/23 13:25:20;;;;;;;10.60;5.57;;;20.90;64.30;;;;;;5075385;28;20281;-61
2023/01/23 13:28:32;;;;;;;12.32;6.07;;;20.90;64.50;;;;;;5075153;28;20346;-62
2023/01/23 13:31:43;;;;;;;15.15;7.00;;;20.90;64.50;;;;;;5075906;28;20307;-61
2023/01/23 13:34:40;;;;;;;9.05;5.60;;;20.90;64.60;;;;;;5075479;28;20209;-61
2023/01/23 13:37:49;;;;;;;6.93;6.13;;;20.90;64.60;;;;;;5073778;28;20572;-61
2023/01/23 13:41:03;;;;;;;9.70;5.95;;;20.80;64.50;;;;;;5072847;28;20193;-61
2023/01/23 13:43:53;;;;;;;9.70;5.93;;;20.90;64.40;;;;;;5073766;28;20267;-60
2023/01/23 13:46:57;;;;;;;12.95;7.18;;;20.90;65.10;;;;;;5072741;28;20574;-60
2023/01/23 13:50:04;;;;;;;11.48;6.38;;;20.90;64.40;;;;;;4992271;28;20284;-60
2023/01/23 13:56:52;;;;;;;9.48;7.07;;;20.90;64.40;;;;;;4759767;30;20211;-61
2023/01/23 13:59:58;;;;;;;12.02;6.32;;;21.00;64.40;;;;;;4750003;30;20208;-61
2023/01/23 14:06:34;;;;;;;11.07;5.60;;;21.00;64.20;;;;;;4734916;30;20821;-60
2023/01/23 14:09:36;;;;;;;10.00;6.38;;;21.00;64.10;;;;;;4665135;30;20216;-61
2023/01/23 14:13:03;;;;;;;10.27;6.28;;;21.00;63.90;;;;;;4631743;30;20232;-60
2023/01/23 14:16:16;;;;;;;12.48;6.85;;;21.00;63.80;;;;;;4647860;30;20287;-61
2023/01/23 14:22:05;;;;;;;12.27;7.00;;;20.70;63.30;;;;;;5108920;27;21001;-61
2023/01/23 14:24:54;;;;;;;11.25;6.55;;;20.90;63.80;;;;;;5078869;28;20199;-61
2023/01/23 14:27:42;;;;;;;8.90;5.53;;;20.90;63.80;;;;;;5080719;28;20369;-61
2023/01/23 14:30:40;;;;;;;7.95;5.45;;;20.80;63.80;;;;;;5080544;28;20291;-61
2023/01/23 14:33:29;;;;;;;7.53;6.20;;;20.90;63.80;;;;;;5121125;27;20211;-61
2023/01/23 14:36:19;;;;;;;8.65;5.85;;;20.90;64.00;;;;;;5115836;27;20241;-61
2023/01/23 14:39:17;;;;;;;9.02;6.35;;;20.90;63.90;;;;;;5124043;28;20208;-60
2023/01/23 14:42:06;;;;;;;6.75;5.40;;;21.20;67.70;;;;;;5124211;27;20183;-61
2023/01/23 14:45:10;;;;;;;6.28;5.68;;;21.00;63.70;;;;;;5124264;28;20199;-60
2023/01/23 14:47:59;;;;;;;9.80;6.13;;;21.10;63.60;;;;;;5129202;27;20205;-59
2023/01/23 14:51:06;;;;;;;10.00;6.50;;;21.10;63.60;;;;;;5128645;28;20214;-61
2023/01/23 14:53:56;;;;;;;11.82;5.40;;;21.10;63.40;;;;;;5129169;27;20289;-61
2023/01/23 14:56:46;;;;;;;7.78;6.15;;;21.10;63.40;;;;;;5129496;27;20197;-61
2023/01/23 14:59:38;;;;;;;9.43;5.80;;;21.10;63.50;;;;;;5129364;27;20226;-61
2023/01/23 15:02:32;;;;;;;11.60;5.53;;;21.00;63.30;;;;;;5128752;27;20294;-60
2023/01/23 15:05:23;;;;;;;9.52;5.30;;;21.10;63.30;;;;;;5123897;28;20195;-60
2023/01/23 15:08:20;;;;;;;5.13;4.50;;;21.10;63.30;;;;;;5127809;28;20199;-60
2023/01/23 15:11:10;;;;;;;9.93;5.38;;;21.10;63.20;;;;;;5127832;28;20690;-61